Aviation Digital Data Service (ADDS)

Output produced by METARs form (0338 UTC 29 August 2016)
found at http://aviationweather.gov/adds/metars/
 
KBWI 282339Z 2900/3006 13006KT P6SM FEW250 
     FM290800 VRB04KT P6SM FEW250